Time;durP1;ratioP1;P1;durP2;ratioP2;P2;SDS_P1;SDS_P2;PMS_P1;PMS_P2;Temp;Humidity;BMP_temperature;BMP_pressure;BME280_temperature;BME280_humidity;BME280_pressure;Samples;Min_cycle;Max_cycle;Signal;HPM_P1;HPM_P2
2024/03/18 00:00:21;;;;;;;;;;;21.90;40.30;;;;;;3032451;19;4670;-25
2024/03/18 00:01:21;;;;;;;;;;;21.90;40.40;;;;;;3053413;19;4688;-26
2024/03/18 00:02:23;;;;;;;;;;;21.90;40.40;;;;;;3052833;19;4739;-26
2024/03/18 00:03:25;;;;;;;;;;;21.90;40.40;;;;;;3031866;19;4603;-25
2024/03/18 00:04:26;;;;;;;;;;;21.90;40.40;;;;;;3052648;19;4882;-25
2024/03/18 00:05:26;;;;;;;;;;;21.90;40.60;;;;;;3030862;19;4992;-26
2024/03/18 00:06:27;;;;;;;;;;;21.90;40.40;;;;;;3052634;19;4709;-25
2024/03/18 00:07:28;;;;;;;;;;;21.80;40.40;;;;;;3053722;19;4698;-25
2024/03/18 00:08:29;;;;;;;;;;;21.90;40.40;;;;;;3031849;19;4677;-26
2024/03/18 00:09:29;;;;;;;;;;;21.80;40.40;;;;;;3051399;19;4703;-25
2024/03/18 00:10:30;;;;;;;;;;;21.80;40.40;;;;;;3034665;19;4737;-30
2024/03/18 00:11:31;;;;;;;;;;;21.80;40.50;;;;;;3052640;19;4680;-24
2024/03/18 00:12:32;;;;;;;;;;;21.80;40.50;;;;;;3053100;19;4720;-29
2024/03/18 00:13:32;;;;;;;;;;;21.80;40.50;;;;;;3031540;19;4710;-26
2024/03/18 00:14:33;;;;;;;;;;;21.80;40.50;;;;;;3052741;19;4676;-24
2024/03/18 00:15:33;;;;;;;;;;;21.80;40.50;;;;;;3053347;19;4781;-26
2024/03/18 00:16:34;;;;;;;;;;;21.80;40.50;;;;;;3031394;19;4788;-26
2024/03/18 00:17:35;;;;;;;;;;;21.80;40.60;;;;;;3054060;19;4703;-26
2024/03/18 00:18:36;;;;;;;;;;;21.80;40.50;;;;;;3032371;19;5228;-24
2024/03/18 00:19:37;;;;;;;;;;;21.80;40.60;;;;;;3052787;19;4787;-25
2024/03/18 00:20:37;;;;;;;;;;;21.80;40.70;;;;;;3051342;19;4749;-28
2024/03/18 00:21:38;;;;;;;;;;;21.80;40.60;;;;;;3030536;19;4714;-25
2024/03/18 00:22:42;;;;;;;;;;;21.80;40.60;;;;;;3052272;19;4770;-24
2024/03/18 00:23:43;;;;;;;;;;;21.80;40.60;;;;;;3052001;19;4676;-25
2024/03/18 00:24:43;;;;;;;;;;;21.80;40.70;;;;;;3028986;19;4630;-27
2024/03/18 00:25:44;;;;;;;;;;;21.80;40.70;;;;;;3051669;19;4711;-25
2024/03/18 00:26:45;;;;;;;;;;;21.80;40.60;;;;;;3030205;19;4747;-24
2024/03/18 00:27:45;;;;;;;;;;;21.80;40.70;;;;;;3052325;19;4683;-24
2024/03/18 00:28:46;;;;;;;;;;;21.80;40.70;;;;;;3050906;19;4671;-25
2024/03/18 00:29:46;;;;;;;;;;;21.80;40.70;;;;;;3029329;19;4716;-25
2024/03/18 00:30:47;;;;;;;;;;;21.80;40.70;;;;;;3050782;19;4712;-29
2024/03/18 00:31:48;;;;;;;;;;;21.80;40.70;;;;;;3051287;19;4729;-28
2024/03/18 00:32:48;;;;;;;;;;;22.10;40.90;;;;;;3029034;19;14375;-24
2024/03/18 00:33:50;;;;;;;;;;;21.70;40.60;;;;;;3051945;19;4710;-28
2024/03/18 00:34:51;;;;;;;;;;;21.70;40.60;;;;;;3029537;19;4710;-25
2024/03/18 00:35:58;;;;;;;;;;;21.80;40.80;;;;;;3053978;19;4781;-29
2024/03/18 00:36:58;;;;;;;;;;;21.80;40.80;;;;;;3053462;19;4687;-28
2024/03/18 00:38:00;;;;;;;;;;;21.70;40.70;;;;;;3030905;19;4614;-26
2024/03/18 00:39:00;;;;;;;;;;;21.70;40.70;;;;;;3051524;19;4669;-24
2024/03/18 00:40:01;;;;;;;;;;;21.70;40.70;;;;;;3032091;19;4705;-24
2024/03/18 00:42:21;;;;;;;;;;;21.70;40.60;;;;;;3052837;19;4658;-25
2024/03/18 00:43:22;;;;;;;;;;;21.70;40.70;;;;;;3031412;19;4623;-26
2024/03/18 00:44:24;;;;;;;;;;;21.70;40.70;;;;;;3051777;19;4796;-24
2024/03/18 00:45:25;;;;;;;;;;;21.70;40.80;;;;;;3030907;19;4745;-27
2024/03/18 00:46:26;;;;;;;;;;;21.70;40.70;;;;;;3053830;19;4707;-26
2024/03/18 00:47:26;;;;;;;;;;;21.70;40.80;;;;;;3053023;19;4714;-25
2024/03/18 00:48:27;;;;;;;;;;;21.70;40.80;;;;;;3030638;19;4631;-25
2024/03/18 00:49:29;;;;;;;;;;;21.70;40.80;;;;;;3053028;19;4920;-24
2024/03/18 00:50:31;;;;;;;;;;;21.70;40.80;;;;;;3039776;19;4704;-25
2024/03/18 00:51:32;;;;;;;;;;;21.70;40.80;;;;;;3051358;19;4726;-25
2024/03/18 00:52:32;;;;;;;;;;;21.70;40.80;;;;;;3053341;19;4938;-24
2024/03/18 00:53:33;;;;;;;;;;;21.90;41.60;;;;;;3031522;19;4663;-27
2024/03/18 00:54:33;;;;;;;;;;;21.70;40.90;;;;;;3050748;19;4721;-24
2024/03/18 00:55:35;;;;;;;;;;;21.70;40.80;;;;;;3050834;19;4719;-26
2024/03/18 00:56:36;;;;;;;;;;;21.70;40.90;;;;;;3029571;19;4917;-25
2024/03/18 00:57:38;;;;;;;;;;;21.70;40.90;;;;;;3051811;19;4716;-28
2024/03/18 00:58:39;;;;;;;;;;;21.70;40.90;;;;;;3029183;19;4702;-27
2024/03/18 00:59:40;;;;;;;;;;;21.70;40.90;;;;;;3049816;19;4919;-24
2024/03/18 01:00:41;;;;;;;;;;;21.70;41.00;;;;;;3050918;19;4798;-25
2024/03/18 01:01:42;;;;;;;;;;;21.70;41.00;;;;;;3028988;19;4755;-27
2024/03/18 01:02:42;;;;;;;;;;;21.60;40.90;;;;;;3051300;19;4727;-24
2024/03/18 01:03:43;;;;;;;;;;;21.60;40.90;;;;;;3050865;19;4950;-26
2024/03/18 01:04:43;;;;;;;;;;;21.60;40.90;;;;;;3029102;19;4664;-26
2024/03/18 01:05:44;;;;;;;;;;;21.60;40.90;;;;;;3051109;19;4719;-26
2024/03/18 01:06:45;;;;;;;;;;;21.60;40.90;;;;;;3028974;19;4965;-25
2024/03/18 01:07:45;;;;;;;;;;;21.60;40.90;;;;;;3051877;19;4682;-25
2024/03/18 01:08:47;;;;;;;;;;;21.60;41.00;;;;;;3052854;19;4732;-25
2024/03/18 01:09:49;;;;;;;;;;;21.60;41.00;;;;;;3030626;19;4884;-25
2024/03/18 01:10:50;;;;;;;;;;;21.60;41.00;;;;;;3052999;19;4710;-26
2024/03/18 01:11:50;;;;;;;;;;;21.60;41.00;;;;;;3030823;19;4737;-24
2024/03/18 01:12:51;;;;;;;;;;;21.60;41.00;;;;;;3052715;19;4656;-27
2024/03/18 01:13:52;;;;;;;;;;;21.60;41.00;;;;;;3052009;19;5315;-24
2024/03/18 01:14:52;;;;;;;;;;;21.60;41.00;;;;;;3030630;19;4675;-24
2024/03/18 01:15:53;;;;;;;;;;;21.60;41.00;;;;;;3050876;19;4702;-26
2024/03/18 01:16:53;;;;;;;;;;;21.60;41.00;;;;;;3051687;19;4685;-26
2024/03/18 01:17:54;;;;;;;;;;;21.60;41.40;;;;;;3029975;19;4661;-25
2024/03/18 01:18:55;;;;;;;;;;;21.60;41.00;;;;;;3051211;19;4750;-29
2024/03/18 01:19:56;;;;;;;;;;;21.60;41.10;;;;;;3027794;19;4811;-26
2024/03/18 01:20:57;;;;;;;;;;;21.60;41.20;;;;;;3053208;19;4676;-27
2024/03/18 01:21:58;;;;;;;;;;;21.60;41.00;;;;;;3052291;19;4846;-24
2024/03/18 01:22:59;;;;;;;;;;;21.60;41.10;;;;;;3030834;19;4777;-27
2024/03/18 01:24:00;;;;;;;;;;;21.60;41.10;;;;;;3052112;19;4577;-25
2024/03/18 01:25:01;;;;;;;;;;;21.60;41.10;;;;;;3052919;19;4654;-26
2024/03/18 01:26:01;;;;;;;;;;;21.60;41.00;;;;;;3030478;19;4701;-25
2024/03/18 01:27:04;;;;;;;;;;;21.50;41.00;;;;;;3050467;19;4690;-25
2024/03/18 01:28:05;;;;;;;;;;;21.50;41.00;;;;;;3030960;19;4979;-25
2024/03/18 01:29:05;;;;;;;;;;;21.50;41.00;;;;;;3051920;19;4628;-25
2024/03/18 01:30:13;;;;;;;;;;;21.50;41.00;;;;;;3051765;19;4672;-25
2024/03/18 01:31:13;;;;;;;;;;;21.50;41.10;;;;;;3030629;19;4640;-26
2024/03/18 01:32:14;;;;;;;;;;;21.50;41.10;;;;;;3051234;19;4736;-25
2024/03/18 01:33:14;;;;;;;;;;;21.50;41.10;;;;;;3031540;19;4157;-27
2024/03/18 01:34:15;;;;;;;;;;;21.50;41.20;;;;;;3051447;19;4653;-28
2024/03/18 01:35:16;;;;;;;;;;;21.30;41.00;;;;;;3051605;19;4786;-24
2024/03/18 01:36:16;;;;;;;;;;;21.50;41.10;;;;;;3029861;19;4625;-28
2024/03/18 01:37:17;;;;;;;;;;;21.50;41.20;;;;;;3051756;19;4729;-29
2024/03/18 01:38:18;;;;;;;;;;;21.50;41.20;;;;;;3051165;19;4861;-29
2024/03/18 01:39:20;;;;;;;;;;;21.50;41.20;;;;;;3029808;19;4688;-25
2024/03/18 01:40:20;;;;;;;;;;;21.50;41.20;;;;;;3051602;19;4689;-25
2024/03/18 01:41:21;;;;;;;;;;;21.50;41.20;;;;;;3030664;19;4624;-24
2024/03/18 01:42:22;;;;;;;;;;;21.40;41.20;;;;;;3051869;19;4725;-24
2024/03/18 01:43:23;;;;;;;;;;;21.50;41.20;;;;;;3052365;19;4702;-26
2024/03/18 01:44:24;;;;;;;;;;;21.40;41.20;;;;;;3030297;19;4651;-28
2024/03/18 01:45:24;;;;;;;;;;;21.40;41.20;;;;;;3051000;19;4759;-26
2024/03/18 01:46:26;;;;;;;;;;;21.50;41.20;;;;;;3052061;19;4843;-24
2024/03/18 01:47:27;;;;;;;;;;;21.40;41.20;;;;;;3030331;19;4688;-25
2024/03/18 01:48:27;;;;;;;;;;;21.50;41.20;;;;;;3051240;19;4727;-25
2024/03/18 01:49:28;;;;;;;;;;;21.40;41.30;;;;;;3031421;19;4708;-25
2024/03/18 01:50:28;;;;;;;;;;;21.40;41.20;;;;;;3052071;19;4760;-23
2024/03/18 01:51:29;;;;;;;;;;;21.40;41.20;;;;;;3052598;19;5065;-25
2024/03/18 01:52:30;;;;;;;;;;;21.40;41.30;;;;;;3030160;19;4683;-25
2024/03/18 01:53:30;;;;;;;;;;;21.40;41.30;;;;;;3051298;19;4835;-25
2024/03/18 01:54:31;;;;;;;;;;;21.40;41.30;;;;;;3030605;19;4873;-25
2024/03/18 01:55:32;;;;;;;;;;;21.40;41.30;;;;;;3051542;19;4853;-24
2024/03/18 01:56:33;;;;;;;;;;;21.40;41.30;;;;;;3051288;19;4997;-26
2024/03/18 01:57:34;;;;;;;;;;;21.40;41.30;;;;;;3030262;19;4779;-25
2024/03/18 01:58:36;;;;;;;;;;;21.40;41.30;;;;;;3052213;19;4787;-27
2024/03/18 01:59:36;;;;;;;;;;;21.40;41.30;;;;;;3051384;19;4769;-27
2024/03/18 02:00:37;;;;;;;;;;;21.40;41.30;;;;;;3030441;19;4590;-28
2024/03/18 02:01:38;;;;;;;;;;;21.40;41.30;;;;;;3052375;19;4700;-26
2024/03/18 02:02:38;;;;;;;;;;;21.30;41.30;;;;;;3030819;19;4780;-25
2024/03/18 02:03:39;;;;;;;;;;;21.40;41.30;;;;;;3051687;19;4768;-24
2024/03/18 02:04:40;;;;;;;;;;;21.40;41.40;;;;;;3051794;19;4710;-25
2024/03/18 02:05:42;;;;;;;;;;;21.40;41.30;;;;;;3029192;19;4932;-25
2024/03/18 02:06:42;;;;;;;;;;;21.40;41.40;;;;;;3051456;19;4730;-26
2024/03/18 02:07:43;;;;;;;;;;;21.40;41.50;;;;;;3051835;19;4895;-26
2024/03/18 02:08:44;;;;;;;;;;;21.40;41.40;;;;;;3029930;19;4627;-27
2024/03/18 02:09:44;;;;;;;;;;;21.40;41.40;;;;;;3051552;19;4705;-26
2024/03/18 02:10:45;;;;;;;;;;;21.40;41.50;;;;;;3028580;19;4733;-24
2024/03/18 02:11:46;;;;;;;;;;;21.30;41.40;;;;;;3052406;19;4917;-26
2024/03/18 02:12:47;;;;;;;;;;;21.40;41.50;;;;;;3052098;19;4679;-23
2024/03/18 02:13:47;;;;;;;;;;;21.40;41.50;;;;;;3029266;19;4730;-24
2024/03/18 02:14:54;;;;;;;;;;;21.30;41.40;;;;;;3051200;19;4665;-25
2024/03/18 02:15:55;;;;;;;;;;;21.30;41.50;;;;;;3029670;19;4724;-27
2024/03/18 02:16:55;;;;;;;;;;;21.30;41.50;;;;;;3052259;19;4637;-24
2024/03/18 02:17:56;;;;;;;;;;;21.30;41.50;;;;;;3051600;19;4630;-25
2024/03/18 02:18:57;;;;;;;;;;;21.30;41.50;;;;;;3030123;19;4634;-27
2024/03/18 02:19:57;;;;;;;;;;;21.30;41.50;;;;;;3049047;19;4632;-26
2024/03/18 02:20:59;;;;;;;;;;;21.30;41.50;;;;;;3051066;19;4691;-25
2024/03/18 02:22:05;;;;;;;;;;;21.30;41.50;;;;;;3030217;19;4623;-25
2024/03/18 02:23:06;;;;;;;;;;;21.30;41.60;;;;;;3050770;19;4732;-27
2024/03/18 02:24:06;;;;;;;;;;;21.30;41.60;;;;;;3029777;19;4309;-25
2024/03/18 02:25:08;;;;;;;;;;;21.30;41.60;;;;;;3047874;19;5617;-27
2024/03/18 02:26:09;;;;;;;;;;;21.30;41.60;;;;;;3050255;19;4688;-25
2024/03/18 02:27:11;;;;;;;;;;;21.30;41.70;;;;;;3030989;19;4595;-24
2024/03/18 02:28:12;;;;;;;;;;;21.30;41.60;;;;;;3051152;19;4716;-26
2024/03/18 02:29:12;;;;;;;;;;;21.30;41.70;;;;;;3029592;19;4735;-27
2024/03/18 02:30:14;;;;;;;;;;;21.30;41.70;;;;;;3051963;19;4701;-25
2024/03/18 02:31:14;;;;;;;;;;;21.30;41.60;;;;;;3051431;19;4713;-24
2024/03/18 02:32:15;;;;;;;;;;;21.30;42.30;;;;;;3030807;19;4666;-25
2024/03/18 02:33:16;;;;;;;;;;;21.40;41.70;;;;;;3051302;19;5159;-25
2024/03/18 02:34:17;;;;;;;;;;;21.20;41.60;;;;;;3050986;19;5095;-27
2024/03/18 02:35:17;;;;;;;;;;;21.20;41.60;;;;;;3029045;19;4634;-27
2024/03/18 02:36:18;;;;;;;;;;;21.30;41.70;;;;;;3050837;19;4749;-25
2024/03/18 02:37:19;;;;;;;;;;;21.20;41.60;;;;;;3028320;19;4681;-24
2024/03/18 02:38:19;;;;;;;;;;;21.20;41.70;;;;;;3051461;19;4700;-25
2024/03/18 02:39:24;;;;;;;;;;;21.20;41.60;;;;;;3050105;19;4779;-25
2024/03/18 02:40:25;;;;;;;;;;;21.20;41.60;;;;;;3030032;19;4636;-25
2024/03/18 02:41:25;;;;;;;;;;;21.20;41.70;;;;;;3050549;19;4738;-24
2024/03/18 02:42:26;;;;;;;;;;;21.20;41.70;;;;;;3049773;19;4732;-26
2024/03/18 02:43:26;;;;;;;;;;;21.20;41.70;;;;;;3028127;19;4612;-24
2024/03/18 02:44:28;;;;;;;;;;;21.20;41.70;;;;;;3048995;19;4727;-26
2024/03/18 02:45:29;;;;;;;;;;;21.20;41.70;;;;;;3028644;19;4739;-26
2024/03/18 02:46:32;;;;;;;;;;;21.20;41.70;;;;;;3050120;19;4736;-27
2024/03/18 02:47:33;;;;;;;;;;;21.20;41.70;;;;;;3049142;19;4718;-26
2024/03/18 02:48:34;;;;;;;;;;;21.20;41.70;;;;;;3029327;19;4645;-25
2024/03/18 02:49:36;;;;;;;;;;;21.10;41.70;;;;;;3049372;19;4733;-25
2024/03/18 02:50:38;;;;;;;;;;;21.20;41.70;;;;;;3028867;19;4759;-26
2024/03/18 02:51:40;;;;;;;;;;;21.20;41.80;;;;;;3049404;19;4760;-26
2024/03/18 02:52:40;;;;;;;;;;;21.10;41.80;;;;;;3048546;19;4689;-27
2024/03/18 02:53:41;;;;;;;;;;;21.20;41.80;;;;;;3028028;19;4695;-28
2024/03/18 02:54:42;;;;;;;;;;;21.10;41.80;;;;;;3048956;19;4912;-28
2024/03/18 02:55:42;;;;;;;;;;;21.10;41.80;;;;;;3050518;19;4697;-26
2024/03/18 02:56:43;;;;;;;;;;;21.20;41.80;;;;;;3031561;19;4675;-25
2024/03/18 02:57:44;;;;;;;;;;;21.10;41.80;;;;;;3051223;19;4712;-23
2024/03/18 02:58:44;;;;;;;;;;;21.10;41.90;;;;;;3029188;19;4705;-29
2024/03/18 02:59:45;;;;;;;;;;;21.10;41.80;;;;;;3051490;19;4763;-25
2024/03/18 03:00:45;;;;;;;;;;;21.10;41.90;;;;;;3049078;19;4711;-27
2024/03/18 03:01:49;;;;;;;;;;;21.10;41.80;;;;;;3029550;19;4719;-24
2024/03/18 03:02:50;;;;;;;;;;;21.10;41.90;;;;;;3051151;19;4747;-27
2024/03/18 03:03:57;;;;;;;;;;;21.10;41.90;;;;;;3029905;19;4751;-24
2024/03/18 03:04:58;;;;;;;;;;;21.10;41.90;;;;;;3049771;19;4925;-25
2024/03/18 03:06:00;;;;;;;;;;;21.10;41.90;;;;;;3051391;19;4694;-26
2024/03/18 03:07:00;;;;;;;;;;;21.10;41.90;;;;;;3029250;19;4670;-25
2024/03/18 03:08:01;;;;;;;;;;;21.00;41.90;;;;;;3049527;19;4713;-25
2024/03/18 03:09:02;;;;;;;;;;;21.10;42.00;;;;;;3050841;19;4682;-25
2024/03/18 03:10:04;;;;;;;;;;;21.10;42.60;;;;;;3029310;19;4712;-25
2024/03/18 03:11:05;;;;;;;;;;;21.10;42.00;;;;;;3051455;19;4674;-25
2024/03/18 03:12:06;;;;;;;;;;;21.00;41.90;;;;;;3029623;19;4989;-25
2024/03/18 03:13:06;;;;;;;;;;;21.00;41.90;;;;;;3050717;19;8731;-28
2024/03/18 03:14:08;;;;;;;;;;;20.80;41.80;;;;;;3051978;19;985;-26
2024/03/18 03:15:09;;;;;;;;;;;21.00;41.90;;;;;;3028370;19;4725;-25
2024/03/18 03:16:10;;;;;;;;;;;21.00;42.00;;;;;;3050479;19;4755;-27
2024/03/18 03:17:11;;;;;;;;;;;21.10;42.10;;;;;;3029226;19;4728;-28
2024/03/18 03:18:11;;;;;;;;;;;21.00;42.00;;;;;;3050685;19;4677;-26
2024/03/18 03:19:13;;;;;;;;;;;21.10;42.20;;;;;;3049129;19;4838;-24
2024/03/18 03:20:18;;;;;;;;;;;21.10;42.10;;;;;;3029307;19;4583;-26
2024/03/18 03:21:19;;;;;;;;;;;21.00;42.10;;;;;;3050870;19;4968;-26
2024/03/18 03:22:20;;;;;;;;;;;21.00;42.00;;;;;;3050728;19;4871;-27
2024/03/18 03:23:21;;;;;;;;;;;21.00;42.10;;;;;;3029415;19;4615;-28
2024/03/18 03:24:22;;;;;;;;;;;21.00;42.00;;;;;;3050574;19;4786;-26
2024/03/18 03:25:22;;;;;;;;;;;21.00;42.10;;;;;;3029163;19;4722;-25
2024/03/18 03:26:23;;;;;;;;;;;21.00;42.10;;;;;;3050959;19;4735;-25
2024/03/18 03:27:26;;;;;;;;;;;21.00;42.10;;;;;;3051071;19;4717;-24
2024/03/18 03:28:28;;;;;;;;;;;21.00;42.10;;;;;;3029796;19;4607;-27
2024/03/18 03:29:29;;;;;;;;;;;21.00;42.10;;;;;;3049793;19;4748;-26
2024/03/18 03:30:30;;;;;;;;;;;21.00;42.10;;;;;;3034314;19;4744;-26
2024/03/18 03:31:30;;;;;;;;;;;21.00;42.20;;;;;;3049987;19;4749;-28
2024/03/18 03:32:31;;;;;;;;;;;20.90;42.10;;;;;;3051199;19;4707;-25
2024/03/18 03:33:35;;;;;;;;;;;21.00;42.10;;;;;;3029281;19;5043;-24
2024/03/18 03:34:37;;;;;;;;;;;20.90;42.20;;;;;;3050024;19;4692;-27
2024/03/18 03:35:37;;;;;;;;;;;20.90;42.10;;;;;;3051029;19;4716;-25
2024/03/18 03:36:40;;;;;;;;;;;20.90;42.10;;;;;;3028088;19;4778;-25
2024/03/18 03:37:41;;;;;;;;;;;21.00;42.20;;;;;;3051271;19;4679;-28
2024/03/18 03:38:41;;;;;;;;;;;20.90;42.20;;;;;;3029487;19;4709;-26
2024/03/18 03:39:42;;;;;;;;;;;20.90;42.30;;;;;;3050660;19;4787;-25
2024/03/18 03:40:51;;;;;;;;;;;20.90;42.30;;;;;;3051069;19;4711;-24
2024/03/18 03:41:51;;;;;;;;;;;20.90;42.30;;;;;;3028174;19;4600;-25
2024/03/18 03:42:52;;;;;;;;;;;20.90;42.30;;;;;;3051173;19;4817;-27
2024/03/18 03:43:52;;;;;;;;;;;20.90;42.30;;;;;;3029265;19;4696;-26
2024/03/18 03:44:53;;;;;;;;;;;20.90;42.40;;;;;;3049840;19;4703;-33
2024/03/18 03:45:56;;;;;;;;;;;20.90;42.50;;;;;;3051453;19;4985;-33
2024/03/18 03:46:57;;;;;;;;;;;21.00;42.50;;;;;;3029220;19;4623;-35
2024/03/18 03:47:57;;;;;;;;;;;21.00;42.50;;;;;;3050993;19;4657;-31
2024/03/18 03:48:58;;;;;;;;;;;21.10;42.50;;;;;;3049515;19;4640;-30
2024/03/18 03:49:59;;;;;;;;;;;21.40;42.40;;;;;;3029893;19;4633;-31
2024/03/18 03:50:59;;;;;;;;;;;21.20;42.30;;;;;;3050431;19;5078;-30
2024/03/18 03:52:00;;;;;;;;;;;21.30;42.10;;;;;;3029267;19;4655;-33
2024/03/18 03:53:01;;;;;;;;;;;21.30;42.00;;;;;;3049786;19;4722;-32
2024/03/18 03:54:03;;;;;;;;;;;21.30;41.90;;;;;;3048501;19;4790;-32
2024/03/18 03:55:03;;;;;;;;;;;21.30;41.90;;;;;;3030321;19;4638;-35
2024/03/18 03:56:04;;;;;;;;;;;21.30;41.90;;;;;;3050365;19;4654;-34
2024/03/18 03:57:05;;;;;;;;;;;21.30;41.80;;;;;;3051227;19;4639;-31
2024/03/18 03:58:05;;;;;;;;;;;21.30;41.80;;;;;;3028846;19;4651;-33
2024/03/18 03:59:06;;;;;;;;;;;21.30;41.80;;;;;;3049835;19;4587;-33
2024/03/18 04:00:11;;;;;;;;;;;21.30;41.80;;;;;;3028235;19;20757;-32
2024/03/18 04:01:12;;;;;;;;;;;21.30;41.80;;;;;;3048847;19;4633;-34
2024/03/18 04:02:15;;;;;;;;;;;21.40;41.80;;;;;;3050504;19;4704;-33
2024/03/18 04:03:22;;;;;;;;;;;21.40;41.80;;;;;;3028615;19;4792;-31
2024/03/18 04:04:23;;;;;;;;;;;21.40;41.70;;;;;;3049903;19;4681;-30
2024/03/18 04:05:23;;;;;;;;;;;21.50;41.60;;;;;;3028727;19;4678;-31
2024/03/18 04:06:24;;;;;;;;;;;21.50;41.50;;;;;;3049617;19;4704;-31
2024/03/18 04:07:26;;;;;;;;;;;21.50;41.40;;;;;;3048897;19;4668;-34
2024/03/18 04:08:26;;;;;;;;;;;21.50;41.40;;;;;;3029771;19;4591;-32
2024/03/18 04:09:27;;;;;;;;;;;21.60;41.40;;;;;;3050567;19;4775;-32
2024/03/18 04:10:28;;;;;;;;;;;21.50;41.30;;;;;;3050814;19;4708;-35
2024/03/18 04:11:29;;;;;;;;;;;21.60;41.50;;;;;;3029504;19;4669;-33
2024/03/18 04:12:29;;;;;;;;;;;21.60;41.40;;;;;;3049444;19;4697;-34
2024/03/18 04:13:30;;;;;;;;;;;21.60;41.40;;;;;;3026372;19;4672;-33
2024/03/18 04:14:32;;;;;;;;;;;21.60;41.40;;;;;;3050276;19;4695;-29
2024/03/18 04:15:33;;;;;;;;;;;21.50;41.30;;;;;;3049520;19;4676;-32
2024/03/18 04:16:34;;;;;;;;;;;21.60;41.40;;;;;;3028568;19;4589;-29
2024/03/18 04:17:34;;;;;;;;;;;21.60;41.30;;;;;;3049474;19;4793;-34
2024/03/18 04:18:35;;;;;;;;;;;21.60;41.30;;;;;;3026982;19;4668;-33
2024/03/18 04:19:38;;;;;;;;;;;21.70;41.30;;;;;;3049131;19;5060;-29
2024/03/18 04:20:39;;;;;;;;;;;21.70;41.20;;;;;;3049993;19;4800;-35
2024/03/18 04:21:39;;;;;;;;;;;21.70;41.80;;;;;;3027696;19;4688;-31
2024/03/18 04:22:40;;;;;;;;;;;21.70;41.10;;;;;;3049424;19;4759;-32
2024/03/18 04:23:41;;;;;;;;;;;21.80;41.10;;;;;;3048314;19;4744;-33
2024/03/18 04:24:41;;;;;;;;;;;21.70;41.00;;;;;;3029250;19;4514;-34
2024/03/18 04:25:42;;;;;;;;;;;21.80;41.10;;;;;;3049501;19;4883;-31
2024/03/18 04:26:45;;;;;;;;;;;21.80;41.10;;;;;;3028650;19;4727;-31
2024/03/18 04:27:47;;;;;;;;;;;21.80;41.10;;;;;;3050467;19;4735;-31
2024/03/18 04:28:47;;;;;;;;;;;21.80;41.10;;;;;;3049088;19;4664;-31
2024/03/18 04:29:48;;;;;;;;;;;21.80;41.10;;;;;;3026150;19;4844;-30
2024/03/18 04:30:48;;;;;;;;;;;21.70;41.00;;;;;;3050744;19;4837;-31
2024/03/18 04:31:49;;;;;;;;;;;21.70;41.00;;;;;;3039627;19;4684;-33
2024/03/18 04:32:50;;;;;;;;;;;21.70;41.00;;;;;;3044525;19;4715;-32
2024/03/18 04:33:50;;;;;;;;;;;21.70;41.00;;;;;;3049424;19;4701;-31
2024/03/18 04:34:51;;;;;;;;;;;21.70;41.00;;;;;;3028201;19;4705;-27
2024/03/18 04:35:52;;;;;;;;;;;21.70;41.00;;;;;;3048347;19;4732;-27
2024/03/18 04:36:52;;;;;;;;;;;21.70;41.00;;;;;;3050542;19;4618;-27
2024/03/18 04:37:55;;;;;;;;;;;21.70;41.00;;;;;;3028157;19;4703;-25
2024/03/18 04:38:56;;;;;;;;;;;21.70;41.00;;;;;;3046934;19;4796;-24
2024/03/18 04:39:56;;;;;;;;;;;21.70;41.00;;;;;;3029158;19;4733;-26
2024/03/18 04:40:58;;;;;;;;;;;21.70;41.00;;;;;;3049568;19;4719;-24
2024/03/18 04:41:59;;;;;;;;;;;21.70;41.10;;;;;;3047884;19;4671;-24
2024/03/18 04:43:00;;;;;;;;;;;21.70;41.00;;;;;;3030371;19;4660;-25
2024/03/18 04:44:00;;;;;;;;;;;21.70;41.10;;;;;;3052118;19;4692;-25
2024/03/18 04:45:02;;;;;;;;;;;21.70;41.10;;;;;;3053168;19;5482;-24
2024/03/18 04:46:03;;;;;;;;;;;21.70;41.00;;;;;;3027323;19;4669;-25
2024/03/18 04:47:03;;;;;;;;;;;21.70;41.00;;;;;;3052196;19;4670;-23
2024/03/18 04:48:04;;;;;;;;;;;21.80;41.00;;;;;;3030982;19;4677;-23
2024/03/18 04:49:06;;;;;;;;;;;21.80;40.90;;;;;;3051618;19;4642;-26
2024/03/18 04:50:08;;;;;;;;;;;21.80;40.90;;;;;;3052433;19;5113;-27
2024/03/18 04:51:09;;;;;;;;;;;21.80;40.90;;;;;;3029594;19;4702;-30
2024/03/18 04:52:09;;;;;;;;;;;21.90;40.90;;;;;;3052205;19;4708;-27
2024/03/18 04:53:10;;;;;;;;;;;21.90;40.90;;;;;;3034809;19;4783;-24
2024/03/18 04:54:11;;;;;;;;;;;21.90;40.80;;;;;;3052097;19;4869;-24
2024/03/18 04:55:11;;;;;;;;;;;22.10;40.90;;;;;;3052647;19;4830;-30
2024/03/18 04:56:12;;;;;;;;;;;21.90;40.80;;;;;;3028814;19;4617;-30
2024/03/18 04:57:13;;;;;;;;;;;21.90;40.80;;;;;;3052999;19;1253;-30
2024/03/18 04:58:13;;;;;;;;;;;21.90;40.80;;;;;;3051334;19;4714;-30
2024/03/18 04:59:15;;;;;;;;;;;21.90;40.80;;;;;;3028441;19;4829;-31
2024/03/18 05:00:16;;;;;;;;;;;21.90;40.80;;;;;;3049893;19;4702;-34
2024/03/18 05:01:17;;;;;;;;;;;21.90;40.80;;;;;;3029908;19;4679;-30
2024/03/18 05:02:17;;;;;;;;;;;21.90;40.90;;;;;;3050552;19;4663;-31
2024/03/18 05:03:18;;;;;;;;;;;21.90;40.80;;;;;;3051412;19;4825;-31
2024/03/18 05:04:19;;;;;;;;;;;21.80;40.80;;;;;;3029964;19;4740;-32
2024/03/18 05:05:19;;;;;;;;;;;21.80;40.80;;;;;;3051438;19;4713;-34
2024/03/18 05:06:21;;;;;;;;;;;21.80;40.90;;;;;;3051554;19;4710;-30
2024/03/18 05:07:21;;;;;;;;;;;21.80;40.90;;;;;;3029136;19;4737;-32
2024/03/18 05:08:22;;;;;;;;;;;21.80;41.10;;;;;;3050463;19;4700;-34
2024/03/18 05:09:23;;;;;;;;;;;21.80;41.00;;;;;;3048490;19;6120;-30
2024/03/18 05:10:26;;;;;;;;;;;21.80;41.00;;;;;;3050088;19;4694;-30
2024/03/18 05:11:27;;;;;;;;;;;21.80;41.10;;;;;;3050243;19;4706;-33
2024/03/18 05:12:28;;;;;;;;;;;21.80;41.10;;;;;;3030154;19;4678;-31
2024/03/18 05:13:28;;;;;;;;;;;21.70;41.10;;;;;;3052202;19;4782;-33
2024/03/18 05:14:29;;;;;;;;;;;21.70;41.10;;;;;;3043938;19;4726;-31
2024/03/18 05:15:30;;;;;;;;;;;21.70;41.10;;;;;;3044867;19;4691;-32
2024/03/18 05:16:37;;;;;;;;;;;21.70;41.20;;;;;;3051964;19;4651;-31
2024/03/18 05:17:38;;;;;;;;;;;21.70;41.20;;;;;;3030532;19;4692;-31
2024/03/18 05:18:38;;;;;;;;;;;21.70;41.20;;;;;;3050286;19;4700;-32
2024/03/18 05:19:39;;;;;;;;;;;21.70;41.30;;;;;;3051635;19;4789;-31
2024/03/18 05:20:40;;;;;;;;;;;22.40;41.70;;;;;;3029997;19;4532;-31
2024/03/18 05:21:41;;;;;;;;;;;21.70;41.40;;;;;;3051203;19;4706;-31
2024/03/18 05:22:41;;;;;;;;;;;21.60;41.30;;;;;;3031504;19;4709;-33
2024/03/18 05:23:42;;;;;;;;;;;21.60;41.30;;;;;;3051695;19;4780;-31
2024/03/18 05:24:45;;;;;;;;;;;21.10;41.20;;;;;;3051008;19;4761;-33
2024/03/18 05:25:51;;;;;;;;;;;21.60;41.40;;;;;;3030920;19;4671;-33
2024/03/18 05:26:52;;;;;;;;;;;21.60;41.50;;;;;;3051681;19;4679;-31
2024/03/18 05:27:52;;;;;;;;;;;21.60;41.50;;;;;;3028089;19;4739;-32
2024/03/18 05:28:53;;;;;;;;;;;21.60;41.50;;;;;;3052233;19;4742;-29
2024/03/18 05:29:54;;;;;;;;;;;21.50;41.50;;;;;;3051109;19;4595;-33
2024/03/18 05:30:54;;;;;;;;;;;21.50;41.50;;;;;;3030578;19;4654;-31
2024/03/18 05:31:55;;;;;;;;;;;21.50;41.60;;;;;;3050920;19;4681;-30
2024/03/18 05:32:56;;;;;;;;;;;21.50;41.60;;;;;;3050149;19;4720;-32
2024/03/18 05:34:00;;;;;;;;;;;21.50;41.60;;;;;;3028303;19;4697;-32
2024/03/18 05:35:01;;;;;;;;;;;21.50;41.70;;;;;;3049996;19;4698;-32
2024/03/18 05:36:02;;;;;;;;;;;21.50;42.20;;;;;;3029226;19;4669;-30
2024/03/18 05:37:03;;;;;;;;;;;21.60;41.50;;;;;;3050557;19;4689;-32
2024/03/18 05:38:03;;;;;;;;;;;21.60;41.40;;;;;;3049779;19;4657;-33
2024/03/18 05:39:04;;;;;;;;;;;21.70;41.40;;;;;;3028429;19;4646;-29
2024/03/18 05:40:06;;;;;;;;;;;21.70;41.30;;;;;;3049866;19;4834;-29
2024/03/18 05:41:06;;;;;;;;;;;21.80;41.40;;;;;;3049106;19;4611;-32
2024/03/18 05:42:07;;;;;;;;;;;21.80;41.30;;;;;;3028755;19;4696;-31
2024/03/18 05:43:08;;;;;;;;;;;21.80;41.30;;;;;;3050835;19;4718;-36
2024/03/18 05:44:08;;;;;;;;;;;21.80;41.20;;;;;;3029979;19;4617;-35
2024/03/18 05:45:09;;;;;;;;;;;21.80;41.20;;;;;;3050604;19;4691;-32
2024/03/18 05:46:10;;;;;;;;;;;21.80;41.20;;;;;;3052799;19;1144;-24
2024/03/18 05:47:10;;;;;;;;;;;21.80;41.20;;;;;;3030137;19;4683;-24
2024/03/18 05:48:11;;;;;;;;;;;21.80;41.10;;;;;;3051038;19;4681;-26
2024/03/18 05:49:11;;;;;;;;;;;21.80;41.10;;;;;;3027932;19;4810;-24
2024/03/18 05:50:12;;;;;;;;;;;21.80;41.10;;;;;;3049514;19;4871;-28
2024/03/18 05:51:13;;;;;;;;;;;21.80;41.10;;;;;;3052894;19;5036;-23
2024/03/18 05:52:13;;;;;;;;;;;21.80;41.10;;;;;;3029769;19;4886;-25
2024/03/18 05:53:15;;;;;;;;;;;21.80;41.00;;;;;;3051421;19;4731;-25
2024/03/18 05:54:16;;;;;;;;;;;21.80;41.10;;;;;;3049833;19;949;-23
2024/03/18 05:55:17;;;;;;;;;;;21.80;41.10;;;;;;3027192;19;4696;-25
2024/03/18 05:56:18;;;;;;;;;;;21.80;41.20;;;;;;3051653;19;4709;-26
2024/03/18 05:57:18;;;;;;;;;;;21.80;41.40;;;;;;3030316;19;4804;-26
2024/03/18 05:58:19;;;;;;;;;;;21.80;41.40;;;;;;3051338;19;4914;-24
2024/03/18 05:59:20;;;;;;;;;;;21.80;41.50;;;;;;3049514;19;5043;-25
2024/03/18 06:00:21;;;;;;;;;;;21.80;41.50;;;;;;3030359;19;4648;-24
2024/03/18 06:01:22;;;;;;;;;;;21.70;41.40;;;;;;3051346;19;4714;-24
2024/03/18 06:02:22;;;;;;;;;;;21.70;41.40;;;;;;3051710;19;4818;-26